Time;durP1;ratioP1;P1;durP2;ratioP2;P2;SDS_P1;SDS_P2;PMS_P1;PMS_P2;Temp;Humidity;BMP_temperature;BMP_pressure;BME280_temperature;BME280_humidity;BME280_pressure;Samples;Min_cycle;Max_cycle;Signal;HPM_P1;HPM_P2
2021/05/10 00:02:23;;;;;;;;;13.00;13.00;;;;;;;;5014017;28;8832;-81
2021/05/10 00:04:50;;;;;;;;;14.75;13.50;;;;;;;;5021152;28;8985;-81
2021/05/10 00:07:18;;;;;;;;;9.00;6.75;;;;;;;;5023032;28;9464;-80
2021/05/10 00:09:45;;;;;;;;;6.50;6.50;;;;;;;;5020560;28;8905;-81
2021/05/10 00:12:13;;;;;;;;;3.75;3.75;;;;;;;;5020861;28;8883;-81
2021/05/10 00:14:42;;;;;;;;;5.00;5.00;;;;;;;;5020480;28;8884;-81
2021/05/10 00:17:10;;;;;;;;;4.50;3.75;;;;;;;;5020111;28;8879;-82
2021/05/10 00:19:37;;;;;;;;;4.00;4.00;;;;;;;;5021059;28;8922;-81
2021/05/10 00:22:07;;;;;;;;;3.00;3.00;;;;;;;;5021082;28;8860;-82
2021/05/10 00:24:37;;;;;;;;;3.00;3.00;;;;;;;;5012495;28;8878;-81
2021/05/10 00:27:05;;;;;;;;;1.00;1.00;;;;;;;;5019828;28;8990;-80
2021/05/10 00:29:32;;;;;;;;;1.75;1.75;;;;;;;;5021135;28;8962;-80
2021/05/10 00:32:00;;;;;;;;;1.00;1.00;;;;;;;;5017958;28;8966;-80
2021/05/10 00:34:27;;;;;;;;;0.75;0.75;;;;;;;;5021467;28;9057;-80
2021/05/10 00:36:54;;;;;;;;;2.25;2.25;;;;;;;;5018733;28;8891;-81
2021/05/10 00:39:24;;;;;;;;;1.00;1.00;;;;;;;;5020964;28;8880;-81
2021/05/10 00:41:54;;;;;;;;;2.00;2.00;;;;;;;;5016263;28;9002;-81
2021/05/10 00:44:21;;;;;;;;;0.25;0.25;;;;;;;;5018684;28;8888;-80
2021/05/10 00:46:48;;;;;;;;;1.00;1.00;;;;;;;;5019455;28;8981;-81
2021/05/10 00:49:15;;;;;;;;;0.50;0.50;;;;;;;;5016467;28;8868;-81
2021/05/10 00:51:42;;;;;;;;;0.75;0.75;;;;;;;;5016348;28;9015;-80
2021/05/10 00:54:09;;;;;;;;;1.25;1.25;;;;;;;;5019599;28;9697;-81
2021/05/10 00:56:39;;;;;;;;;2.00;2.00;;;;;;;;5021607;28;8887;-79
2021/05/10 00:59:07;;;;;;;;;1.00;1.00;;;;;;;;5018518;28;8893;-80
2021/05/10 01:01:34;;;;;;;;;1.00;1.00;;;;;;;;5019509;28;8848;-81
2021/05/10 01:04:01;;;;;;;;;1.75;1.75;;;;;;;;5007647;28;8867;-80
2021/05/10 01:06:27;;;;;;;;;1.75;1.75;;;;;;;;5025634;28;8921;-81
2021/05/10 01:08:54;;;;;;;;;2.75;2.75;;;;;;;;5024299;28;9672;-82
2021/05/10 01:11:22;;;;;;;;;2.00;2.00;;;;;;;;5024736;28;9000;-82
2021/05/10 01:13:49;;;;;;;;;2.25;2.25;;;;;;;;5053167;28;8900;-81
2021/05/10 01:16:17;;;;;;;;;5.00;1.75;;;;;;;;5024493;28;9725;-82
2021/05/10 01:18:46;;;;;;;;;1.50;1.50;;;;;;;;5019642;28;8882;-81
2021/05/10 01:21:13;;;;;;;;;2.50;2.50;;;;;;;;5015784;28;8860;-82
2021/05/10 01:23:42;;;;;;;;;2.00;2.00;;;;;;;;5025117;28;9497;-81
2021/05/10 01:26:12;;;;;;;;;3.00;2.00;;;;;;;;5018149;28;8902;-82
2021/05/10 01:28:39;;;;;;;;;2.00;2.00;;;;;;;;5022631;28;8868;-81
2021/05/10 01:31:06;;;;;;;;;2.00;2.00;;;;;;;;5024203;28;8804;-82
2021/05/10 01:33:33;;;;;;;;;1.75;1.75;;;;;;;;5022964;28;8868;-81
2021/05/10 01:36:00;;;;;;;;;6.25;1.75;;;;;;;;5023565;28;9017;-82
2021/05/10 01:38:29;;;;;;;;;2.00;2.00;;;;;;;;5022124;28;9018;-82
2021/05/10 01:40:58;;;;;;;;;4.75;2.00;;;;;;;;5024154;28;8892;-82
2021/05/10 01:43:28;;;;;;;;;3.00;1.75;;;;;;;;5023451;28;8867;-82
2021/05/10 01:45:58;;;;;;;;;3.00;2.00;;;;;;;;5021442;28;8875;-81
2021/05/10 01:48:26;;;;;;;;;2.00;2.00;;;;;;;;5021195;28;9682;-81
2021/05/10 01:50:53;;;;;;;;;2.00;2.00;;;;;;;;5022855;28;8911;-80
2021/05/10 01:53:20;;;;;;;;;3.00;2.00;;;;;;;;5024235;28;8903;-79
2021/05/10 01:55:52;;;;;;;;;3.00;3.00;;;;;;;;5022773;28;8912;-79
2021/05/10 01:58:20;;;;;;;;;0.00;0.00;;;;;;;;5023427;28;8884;-81
2021/05/10 02:00:48;;;;;;;;;3.00;1.25;;;;;;;;5020881;28;8804;-81
2021/05/10 02:03:16;;;;;;;;;2.00;2.00;;;;;;;;5023075;28;9791;-80
2021/05/10 02:05:43;;;;;;;;;2.00;1.75;;;;;;;;5023258;28;8863;-81
2021/05/10 02:08:14;;;;;;;;;1.50;1.50;;;;;;;;5023491;28;8983;-80
2021/05/10 02:10:43;;;;;;;;;2.00;2.00;;;;;;;;5015484;28;8863;-80
2021/05/10 02:13:11;;;;;;;;;2.00;2.00;;;;;;;;5023226;28;8922;-81
2021/05/10 02:15:40;;;;;;;;;3.00;2.25;;;;;;;;5010386;28;8874;-81
2021/05/10 02:18:10;;;;;;;;;2.00;2.00;;;;;;;;5015326;28;8868;-82
2021/05/10 02:20:40;;;;;;;;;1.00;1.00;;;;;;;;5023737;28;8887;-82
2021/05/10 02:23:10;;;;;;;;;2.00;2.00;;;;;;;;5022033;28;8864;-82
2021/05/10 02:25:39;;;;;;;;;2.00;2.00;;;;;;;;5025221;28;8972;-82
2021/05/10 02:28:06;;;;;;;;;2.50;2.50;;;;;;;;5021354;28;8887;-81
2021/05/10 02:30:35;;;;;;;;;1.50;1.50;;;;;;;;5021724;28;8826;-80
2021/05/10 02:33:05;;;;;;;;;2.50;2.50;;;;;;;;5023427;28;8844;-80
2021/05/10 02:35:32;;;;;;;;;2.75;1.00;;;;;;;;5022877;28;8879;-80
2021/05/10 02:37:59;;;;;;;;;1.00;1.00;;;;;;;;5022265;28;8872;-80
2021/05/10 02:40:27;;;;;;;;;1.75;1.75;;;;;;;;5022026;28;8921;-81
2021/05/10 02:42:54;;;;;;;;;3.00;1.25;;;;;;;;5023183;28;8872;-81
2021/05/10 02:45:23;;;;;;;;;1.50;1.50;;;;;;;;5016837;28;8860;-80
2021/05/10 02:47:50;;;;;;;;;1.00;1.00;;;;;;;;5022482;28;8887;-80
2021/05/10 02:50:20;;;;;;;;;2.00;2.00;;;;;;;;5023160;28;8875;-80
2021/05/10 02:52:48;;;;;;;;;1.50;1.50;;;;;;;;5022107;28;8880;-80
2021/05/10 02:55:15;;;;;;;;;3.00;3.00;;;;;;;;5024125;28;8879;-80
2021/05/10 02:57:43;;;;;;;;;2.00;1.50;;;;;;;;5021596;28;8979;-80
2021/05/10 03:00:11;;;;;;;;;4.75;2.00;;;;;;;;5022492;28;8860;-80
2021/05/10 03:02:38;;;;;;;;;2.50;2.00;;;;;;;;5052621;28;8864;-80
2021/05/10 03:05:07;;;;;;;;;2.25;2.25;;;;;;;;5022673;28;8883;-81
2021/05/10 03:07:35;;;;;;;;;4.00;2.00;;;;;;;;5022313;28;8980;-80
2021/05/10 03:10:03;;;;;;;;;2.00;2.00;;;;;;;;5022154;28;8887;-81
2021/05/10 03:12:30;;;;;;;;;3.00;3.00;;;;;;;;5022819;28;8856;-81
2021/05/10 03:14:56;;;;;;;;;1.00;1.00;;;;;;;;5020733;28;8913;-80
2021/05/10 03:17:23;;;;;;;;;2.25;2.25;;;;;;;;5023413;28;8868;-83
2021/05/10 03:19:50;;;;;;;;;3.00;3.00;;;;;;;;5021415;28;8876;-81
2021/05/10 03:22:17;;;;;;;;;4.00;3.00;;;;;;;;5023113;28;8933;-80
2021/05/10 03:24:45;;;;;;;;;2.25;2.00;;;;;;;;5020698;28;9578;-80
2021/05/10 03:27:12;;;;;;;;;3.00;3.00;;;;;;;;5020811;28;8946;-79
2021/05/10 03:29:39;;;;;;;;;4.00;4.00;;;;;;;;5020600;28;8890;-80
2021/05/10 03:32:06;;;;;;;;;3.00;3.00;;;;;;;;5018948;28;8804;-82
2021/05/10 03:34:33;;;;;;;;;3.25;3.25;;;;;;;;5019498;28;8884;-80
2021/05/10 03:37:00;;;;;;;;;2.00;2.00;;;;;;;;5020546;28;8895;-82
2021/05/10 03:39:27;;;;;;;;;3.00;3.00;;;;;;;;5021234;28;9606;-81
2021/05/10 03:41:55;;;;;;;;;5.00;4.75;;;;;;;;5021058;28;8906;-81
2021/05/10 03:44:22;;;;;;;;;4.00;4.00;;;;;;;;5018635;28;8886;-84
2021/05/10 03:46:49;;;;;;;;;4.00;4.00;;;;;;;;5021890;28;8855;-82
2021/05/10 03:49:16;;;;;;;;;4.25;4.25;;;;;;;;5023155;28;8941;-85
2021/05/10 03:51:43;;;;;;;;;5.00;4.25;;;;;;;;5022462;28;9653;-83
2021/05/10 03:54:10;;;;;;;;;3.25;3.25;;;;;;;;5020610;28;8859;-82
2021/05/10 03:56:37;;;;;;;;;5.75;4.50;;;;;;;;5014445;28;9388;-82
2021/05/10 03:59:05;;;;;;;;;3.00;3.00;;;;;;;;5018602;28;8954;-81
2021/05/10 04:01:32;;;;;;;;;4.00;4.00;;;;;;;;5016283;28;9606;-80
2021/05/10 04:04:06;;;;;;;;;5.50;5.00;;;;;;;;5019764;28;9006;-81
2021/05/10 04:06:42;;;;;;;;;3.00;3.00;;;;;;;;5019611;28;8937;-81
2021/05/10 04:14:45;;;;;;;;;4.00;4.00;;;;;;;;5017920;28;8852;-81
2021/05/10 04:17:12;;;;;;;;;5.00;5.00;;;;;;;;5022464;28;8875;-81
2021/05/10 04:19:39;;;;;;;;;4.00;4.00;;;;;;;;5016662;28;8872;-79
2021/05/10 04:22:06;;;;;;;;;3.50;3.50;;;;;;;;5023128;28;8868;-83
2021/05/10 04:24:33;;;;;;;;;2.00;2.00;;;;;;;;5021866;28;8891;-82
2021/05/10 04:27:04;;;;;;;;;3.25;3.25;;;;;;;;5022034;28;8953;-80
2021/05/10 04:29:31;;;;;;;;;5.25;5.25;;;;;;;;5050237;28;8859;-80
2021/05/10 04:31:59;;;;;;;;;5.00;5.00;;;;;;;;5022470;28;8836;-77
2021/05/10 04:34:26;;;;;;;;;3.25;3.25;;;;;;;;5018180;28;8918;-81
2021/05/10 04:36:55;;;;;;;;;6.25;4.75;;;;;;;;5020768;28;8867;-78
2021/05/10 04:39:22;;;;;;;;;3.00;3.00;;;;;;;;5021575;28;9038;-81
2021/05/10 04:41:48;;;;;;;;;3.50;3.50;;;;;;;;5018360;28;8905;-81
2021/05/10 04:44:15;;;;;;;;;3.75;3.75;;;;;;;;5022597;28;8892;-81
2021/05/10 04:46:42;;;;;;;;;3.75;3.75;;;;;;;;5023909;28;8943;-81
2021/05/10 04:49:10;;;;;;;;;4.25;3.75;;;;;;;;5026002;28;8867;-79
2021/05/10 04:51:40;;;;;;;;;3.75;3.75;;;;;;;;5025598;28;9002;-79
2021/05/10 04:54:07;;;;;;;;;3.25;3.25;;;;;;;;5025002;28;8896;-81
2021/05/10 04:56:34;;;;;;;;;2.00;2.00;;;;;;;;5027174;28;8982;-82
2021/05/10 04:59:01;;;;;;;;;1.25;1.25;;;;;;;;5025096;28;8892;-80
2021/05/10 05:01:28;;;;;;;;;2.75;2.75;;;;;;;;5024781;28;8946;-82
2021/05/10 05:03:55;;;;;;;;;2.50;2.00;;;;;;;;5024694;28;8859;-84
2021/05/10 05:06:23;;;;;;;;;2.25;2.25;;;;;;;;5026393;28;8911;-82
2021/05/10 05:08:50;;;;;;;;;2.50;2.00;;;;;;;;5025291;28;8928;-81
2021/05/10 05:11:16;;;;;;;;;3.50;3.00;;;;;;;;5025618;28;8879;-83
2021/05/10 05:13:43;;;;;;;;;2.25;2.25;;;;;;;;5020625;28;8921;-80
2021/05/10 05:16:10;;;;;;;;;3.75;3.00;;;;;;;;5023541;28;8867;-82
2021/05/10 05:18:38;;;;;;;;;1.00;1.00;;;;;;;;5023385;28;8907;-82
2021/05/10 05:21:05;;;;;;;;;2.75;2.75;;;;;;;;5023113;28;8888;-81
2021/05/10 05:23:34;;;;;;;;;2.75;2.75;;;;;;;;5025540;28;8880;-83
2021/05/10 05:26:02;;;;;;;;;5.50;4.00;;;;;;;;5022675;28;8868;-85
2021/05/10 05:28:30;;;;;;;;;2.00;2.00;;;;;;;;5025910;28;8892;-87
2021/05/10 05:30:58;;;;;;;;;2.50;2.50;;;;;;;;5024590;28;9665;-81
2021/05/10 05:33:26;;;;;;;;;3.00;3.00;;;;;;;;5025278;28;8898;-80
2021/05/10 05:35:53;;;;;;;;;2.00;2.00;;;;;;;;5025906;28;8867;-87
2021/05/10 05:38:20;;;;;;;;;3.25;3.25;;;;;;;;5024675;28;8911;-85
2021/05/10 05:40:49;;;;;;;;;2.00;2.00;;;;;;;;5024327;28;8918;-87
2021/05/10 05:43:19;;;;;;;;;3.00;3.00;;;;;;;;5023504;28;8867;-87
2021/05/10 05:45:45;;;;;;;;;4.00;2.00;;;;;;;;5026526;28;8864;-86
2021/05/10 05:48:14;;;;;;;;;5.00;3.75;;;;;;;;5023491;28;9955;-85
2021/05/10 05:50:41;;;;;;;;;2.25;2.25;;;;;;;;5025547;28;9058;-83
2021/05/10 05:53:08;;;;;;;;;2.25;2.25;;;;;;;;5025940;28;8908;-86
2021/05/10 05:55:35;;;;;;;;;1.25;1.25;;;;;;;;5024602;28;8875;-86
2021/05/10 05:58:04;;;;;;;;;3.00;3.00;;;;;;;;5025368;28;8872;-85
2021/05/10 06:00:31;;;;;;;;;2.00;2.00;;;;;;;;5024268;28;9018;-88
2021/05/10 06:02:58;;;;;;;;;1.25;1.25;;;;;;;;5025224;28;8867;-89
2021/05/10 06:05:25;;;;;;;;;4.25;1.00;;;;;;;;5022506;28;8944;-74
2021/05/10 06:07:52;;;;;;;;;3.25;1.00;;;;;;;;5023499;28;8892;-79
2021/05/10 06:10:22;;;;;;;;;1.00;1.00;;;;;;;;5053760;28;9972;-80
2021/05/10 06:12:50;;;;;;;;;2.25;1.75;;;;;;;;5021276;28;8852;-78
2021/05/10 06:15:19;;;;;;;;;1.00;1.00;;;;;;;;5023712;28;8852;-79
2021/05/10 06:17:46;;;;;;;;;1.25;1.25;;;;;;;;5023035;28;8879;-82
2021/05/10 06:20:14;;;;;;;;;1.00;1.00;;;;;;;;5024211;28;9420;-80
2021/05/10 06:22:42;;;;;;;;;1.75;1.75;;;;;;;;5021754;28;8876;-83
2021/05/10 06:25:11;;;;;;;;;1.00;1.00;;;;;;;;5024321;28;9629;-80
2021/05/10 06:27:39;;;;;;;;;0.00;0.00;;;;;;;;5023159;28;8864;-84
2021/05/10 06:30:07;;;;;;;;;3.00;1.25;;;;;;;;5021271;28;9000;-82
2021/05/10 06:32:36;;;;;;;;;3.00;1.00;;;;;;;;5023308;28;8902;-82
2021/05/10 06:35:03;;;;;;;;;2.50;0.75;;;;;;;;5021257;28;8864;-79
2021/05/10 06:37:30;;;;;;;;;1.00;1.00;;;;;;;;5023814;28;8844;-85
2021/05/10 06:39:57;;;;;;;;;2.00;2.00;;;;;;;;5021494;28;8872;-83
2021/05/10 06:42:25;;;;;;;;;2.75;2.75;;;;;;;;5023441;28;8880;-81
2021/05/10 06:44:52;;;;;;;;;3.00;1.50;;;;;;;;5021271;28;8980;-82
2021/05/10 06:47:19;;;;;;;;;1.75;1.75;;;;;;;;5018534;28;8879;-82
2021/05/10 06:49:47;;;;;;;;;1.75;1.75;;;;;;;;5023678;28;8863;-81
2021/05/10 06:52:14;;;;;;;;;3.33;2.00;;;;;;;;5022818;28;9030;-82
2021/05/10 06:54:40;;;;;;;;;0.50;0.50;;;;;;;;5022752;28;8880;-81
2021/05/10 06:57:07;;;;;;;;;1.50;1.50;;;;;;;;5023070;28;8986;-80
2021/05/10 06:59:34;;;;;;;;;1.50;1.00;;;;;;;;5024879;28;8872;-81
2021/05/10 07:02:01;;;;;;;;;1.00;1.00;;;;;;;;5026423;28;8923;-75
2021/05/10 07:04:28;;;;;;;;;1.50;1.25;;;;;;;;5031050;28;8873;-77
2021/05/10 07:06:56;;;;;;;;;2.00;1.25;;;;;;;;5032020;28;8871;-77
2021/05/10 07:09:23;;;;;;;;;2.00;2.00;;;;;;;;5013924;28;9772;-83
2021/05/10 07:11:50;;;;;;;;;1.25;1.25;;;;;;;;5022676;28;8872;-82
2021/05/10 07:14:17;;;;;;;;;2.00;2.00;;;;;;;;5023716;28;8852;-80
2021/05/10 07:16:43;;;;;;;;;0.75;0.75;;;;;;;;5026170;28;9758;-75
2021/05/10 07:19:11;;;;;;;;;1.25;1.25;;;;;;;;5020170;28;8890;-77
2021/05/10 07:21:38;;;;;;;;;0.50;0.50;;;;;;;;5028289;28;8906;-76
2021/05/10 07:24:07;;;;;;;;;2.00;2.00;;;;;;;;5019811;28;8941;-81
2021/05/10 07:26:35;;;;;;;;;2.00;2.00;;;;;;;;5028091;28;9032;-82
2021/05/10 07:29:02;;;;;;;;;1.75;1.50;;;;;;;;5020886;28;8864;-79
2021/05/10 07:31:29;;;;;;;;;2.00;2.00;;;;;;;;5030065;28;9647;-80
2021/05/10 07:33:56;;;;;;;;;1.00;1.00;;;;;;;;5031689;28;8852;-79
2021/05/10 07:36:23;;;;;;;;;3.75;2.00;;;;;;;;5041026;28;8911;-80
2021/05/10 07:38:50;;;;;;;;;1.00;1.00;;;;;;;;5028046;28;8982;-81
2021/05/10 07:41:18;;;;;;;;;3.00;1.00;;;;;;;;5029095;28;8856;-80
2021/05/10 07:43:45;;;;;;;;;1.25;1.25;;;;;;;;5033680;28;8876;-81
2021/05/10 07:46:12;;;;;;;;;2.00;2.00;;;;;;;;5003913;28;8887;-80
2021/05/10 07:48:41;;;;;;;;;1.00;1.00;;;;;;;;5027925;28;8867;-79
2021/05/10 07:51:07;;;;;;;;;2.00;1.00;;;;;;;;5032234;28;8849;-78
2021/05/10 07:53:34;;;;;;;;;1.75;1.75;;;;;;;;5024983;28;8902;-78
2021/05/10 07:56:01;;;;;;;;;1.50;1.00;;;;;;;;5026963;28;8901;-80
2021/05/10 07:58:29;;;;;;;;;1.00;1.00;;;;;;;;5026271;28;9015;-78
2021/05/10 08:00:58;;;;;;;;;2.50;1.25;;;;;;;;5029973;28;8836;-76
2021/05/10 08:03:27;;;;;;;;;4.00;2.50;;;;;;;;5029913;28;8963;-81
2021/05/10 08:05:55;;;;;;;;;0.75;0.75;;;;;;;;5031135;28;9728;-77
2021/05/10 08:08:23;;;;;;;;;2.00;2.00;;;;;;;;5033375;28;8967;-82
2021/05/10 08:10:50;;;;;;;;;2.75;1.00;;;;;;;;5027699;28;8887;-81
2021/05/10 08:13:18;;;;;;;;;0.00;0.00;;;;;;;;5027659;28;8876;-74
2021/05/10 08:15:46;;;;;;;;;2.00;1.00;;;;;;;;5019447;28;8876;-81
2021/05/10 08:18:14;;;;;;;;;0.75;0.75;;;;;;;;5031771;28;8868;-74
2021/05/10 08:20:42;;;;;;;;;1.00;1.00;;;;;;;;5033057;28;9732;-82
2021/05/10 08:23:10;;;;;;;;;1.00;1.00;;;;;;;;5028943;28;8865;-79
2021/05/10 08:25:37;;;;;;;;;1.25;0.25;;;;;;;;5036163;28;8900;-77
2021/05/10 08:28:05;;;;;;;;;2.00;1.00;;;;;;;;5021560;28;8884;-80
2021/05/10 08:30:32;;;;;;;;;3.00;1.00;;;;;;;;5021128;28;8784;-79
2021/05/10 08:33:01;;;;;;;;;1.00;1.00;;;;;;;;5020737;28;8886;-80
2021/05/10 08:35:29;;;;;;;;;3.25;2.75;;;;;;;;5045180;28;8850;-82
2021/05/10 08:37:56;;;;;;;;;1.50;1.50;;;;;;;;5021654;28;8860;-80
2021/05/10 08:40:23;;;;;;;;;3.00;1.00;;;;;;;;5030815;28;8860;-81
2021/05/10 08:42:50;;;;;;;;;1.00;1.00;;;;;;;;5025625;28;8893;-77
2021/05/10 08:45:20;;;;;;;;;1.00;1.00;;;;;;;;5027041;28;8930;-79
2021/05/10 08:47:48;;;;;;;;;1.25;1.25;;;;;;;;5032077;28;8883;-79
2021/05/10 08:50:17;;;;;;;;;1.75;1.00;;;;;;;;5023678;28;8883;-77
2021/05/10 08:52:44;;;;;;;;;4.00;2.00;;;;;;;;5024234;28;8856;-80
2021/05/10 08:55:15;;;;;;;;;3.00;1.00;;;;;;;;5019631;28;8872;-77
2021/05/10 08:57:41;;;;;;;;;3.00;1.50;;;;;;;;5031156;28;8992;-81
2021/05/10 09:00:12;;;;;;;;;2.50;1.00;;;;;;;;5021488;28;8990;-83
2021/05/10 09:02:39;;;;;;;;;1.25;1.25;;;;;;;;5019383;28;9636;-79
2021/05/10 09:05:15;;;;;;;;;0.75;0.75;;;;;;;;5022360;28;8864;-80
2021/05/10 09:07:43;;;;;;;;;1.00;1.00;;;;;;;;5020770;28;8872;-76
2021/05/10 09:10:12;;;;;;;;;0.50;0.50;;;;;;;;5035391;28;8882;-81
2021/05/10 09:12:43;;;;;;;;;0.50;0.50;;;;;;;;5025458;28;10176;-82
2021/05/10 09:15:21;;;;;;;;;1.00;1.00;;;;;;;;5022883;28;8892;-82
2021/05/10 09:17:50;;;;;;;;;2.25;1.75;;;;;;;;5023150;28;8859;-87
2021/05/10 09:20:20;;;;;;;;;3.00;1.50;;;;;;;;5023567;28;8903;-86
2021/05/10 09:22:52;;;;;;;;;0.50;0.50;;;;;;;;5029793;28;9118;-83
2021/05/10 09:25:20;;;;;;;;;3.00;1.75;;;;;;;;5025043;28;8873;-76
2021/05/10 09:27:48;;;;;;;;;1.50;1.50;;;;;;;;5029152;28;8902;-85
2021/05/10 09:30:20;;;;;;;;;1.00;1.00;;;;;;;;5027742;28;8901;-79
2021/05/10 09:32:52;;;;;;;;;2.50;1.00;;;;;;;;5038625;28;8877;-77
2021/05/10 09:35:30;;;;;;;;;1.75;1.75;;;;;;;;5032881;28;9670;-80
2021/05/10 09:37:59;;;;;;;;;1.25;1.25;;;;;;;;5029062;28;8880;-81
2021/05/10 09:40:29;;;;;;;;;4.00;1.00;;;;;;;;5024795;28;8883;-82
2021/05/10 09:42:58;;;;;;;;;1.00;1.00;;;;;;;;5028767;28;8930;-85
2021/05/10 09:45:37;;;;;;;;;0.75;0.75;;;;;;;;5023311;28;8872;-82
2021/05/10 09:48:13;;;;;;;;;1.00;1.00;;;;;;;;5017617;28;9625;-83
2021/05/10 09:50:43;;;;;;;;;0.00;0.00;;;;;;;;5055280;28;8859;-83
2021/05/10 09:53:12;;;;;;;;;1.00;1.00;;;;;;;;5025975;28;8850;-81
2021/05/10 09:55:46;;;;;;;;;2.50;1.00;;;;;;;;5023796;28;8855;-82
2021/05/10 09:58:14;;;;;;;;;1.00;0.00;;;;;;;;5018186;28;8861;-78
2021/05/10 10:00:41;;;;;;;;;1.00;1.00;;;;;;;;5024123;28;8924;-81
2021/05/10 10:03:26;;;;;;;;;0.00;0.00;;;;;;;;5029639;28;8886;-76
2021/05/10 10:05:56;;;;;;;;;0.80;0.80;;;;;;;;5029024;28;8852;-81
2021/05/10 10:08:23;;;;;;;;;1.60;0.00;;;;;;;;5019924;28;8972;-80
2021/05/10 10:10:50;;;;;;;;;2.50;1.00;;;;;;;;5028132;28;8890;-76
2021/05/10 10:13:18;;;;;;;;;0.50;0.50;;;;;;;;5024730;28;8875;-76
2021/05/10 10:15:46;;;;;;;;;0.00;0.00;;;;;;;;5065079;28;8894;-82
2021/05/10 10:18:16;;;;;;;;;1.75;1.75;;;;;;;;5027985;28;8990;-80
2021/05/10 10:20:45;;;;;;;;;0.00;0.00;;;;;;;;5029790;28;8884;-78
2021/05/10 10:23:14;;;;;;;;;0.80;0.80;;;;;;;;5038212;28;8918;-80
2021/05/10 10:25:42;;;;;;;;;0.00;0.00;;;;;;;;5032360;28;8886;-84
2021/05/10 10:28:09;;;;;;;;;0.00;0.00;;;;;;;;5033452;28;8872;-81
2021/05/10 10:30:41;;;;;;;;;1.00;1.00;;;;;;;;5023180;28;8878;-81
2021/05/10 10:33:10;;;;;;;;;3.50;2.00;;;;;;;;5036048;28;8864;-79
2021/05/10 10:35:43;;;;;;;;;4.00;2.00;;;;;;;;5034195;28;8904;-79
2021/05/10 10:38:10;;;;;;;;;0.75;0.75;;;;;;;;5027446;28;8990;-79
2021/05/10 10:40:39;;;;;;;;;1.00;1.00;;;;;;;;5035622;28;8895;-81
2021/05/10 10:43:22;;;;;;;;;1.50;1.00;;;;;;;;5026333;28;8889;-81
2021/05/10 10:46:16;;;;;;;;;1.00;1.00;;;;;;;;5019828;28;8988;-81
2021/05/10 10:48:43;;;;;;;;;3.00;2.00;;;;;;;;5029251;28;8883;-80
2021/05/10 10:51:12;;;;;;;;;1.80;1.00;;;;;;;;5023719;28;8879;-82
2021/05/10 10:53:44;;;;;;;;;1.00;1.00;;;;;;;;5027744;28;8852;-87
2021/05/10 10:56:12;;;;;;;;;2.20;1.00;;;;;;;;5037283;28;9005;-83
2021/05/10 10:58:41;;;;;;;;;0.00;0.00;;;;;;;;5020549;28;8848;-85
2021/05/10 11:01:14;;;;;;;;;2.00;2.00;;;;;;;;5021749;28;8808;-85
2021/05/10 11:03:41;;;;;;;;;0.40;0.40;;;;;;;;5028116;28;8912;-87
2021/05/10 11:06:09;;;;;;;;;2.00;1.00;;;;;;;;5028655;28;8891;-84
2021/05/10 11:08:50;;;;;;;;;0.60;0.60;;;;;;;;5030118;28;8864;-81
2021/05/10 11:11:40;;;;;;;;;0.80;0.00;;;;;;;;5031608;28;9002;-84
2021/05/10 11:14:15;;;;;;;;;0.80;0.60;;;;;;;;5021199;28;9790;-80
2021/05/10 11:16:47;;;;;;;;;0.20;0.20;;;;;;;;5023894;28;8883;-79
2021/05/10 11:19:34;;;;;;;;;1.80;0.20;;;;;;;;5022837;28;8885;-80
2021/05/10 11:22:02;;;;;;;;;0.80;0.80;;;;;;;;5019063;28;8927;-81
2021/05/10 11:24:33;;;;;;;;;2.00;1.00;;;;;;;;5012772;28;8858;-85
2021/05/10 11:27:02;;;;;;;;;3.20;1.00;;;;;;;;5020990;28;8880;-83
2021/05/10 11:29:50;;;;;;;;;0.00;0.00;;;;;;;;5023452;28;8879;-83
2021/05/10 11:32:29;;;;;;;;;0.60;0.60;;;;;;;;5014896;28;8844;-87
2021/05/10 11:34:57;;;;;;;;;2.00;0.00;;;;;;;;5022882;28;8859;-85
2021/05/10 11:37:25;;;;;;;;;1.00;1.00;;;;;;;;5022337;28;8875;-85
2021/05/10 11:39:55;;;;;;;;;1.80;0.60;;;;;;;;5022064;28;8977;-83
2021/05/10 11:42:27;;;;;;;;;1.00;1.00;;;;;;;;5022080;28;8880;-81
2021/05/10 11:45:00;;;;;;;;;2.00;0.60;;;;;;;;5021998;28;8895;-81
2021/05/10 11:47:27;;;;;;;;;0.00;0.00;;;;;;;;5023768;28;8879;-80
2021/05/10 11:49:54;;;;;;;;;4.00;1.00;;;;;;;;5022966;28;8879;-82
2021/05/10 11:52:23;;;;;;;;;1.00;1.00;;;;;;;;5023422;28;8895;-81
2021/05/10 11:54:51;;;;;;;;;0.20;0.20;;;;;;;;5023968;28;8856;-81
2021/05/10 11:57:23;;;;;;;;;0.80;0.80;;;;;;;;5022155;28;8912;-81
2021/05/10 11:59:52;;;;;;;;;0.00;0.00;;;;;;;;5022930;28;8902;-82
2021/05/10 12:02:22;;;;;;;;;1.60;1.60;;;;;;;;5021406;28;8840;-82
2021/05/10 12:04:51;;;;;;;;;0.00;0.00;;;;;;;;5024310;28;8884;-81
2021/05/10 12:07:18;;;;;;;;;1.00;1.00;;;;;;;;5022089;28;8868;-78
2021/05/10 12:09:48;;;;;;;;;0.00;0.00;;;;;;;;5022345;28;8879;-79
2021/05/10 12:12:38;;;;;;;;;1.80;1.00;;;;;;;;5021239;28;8899;-80
2021/05/10 12:15:18;;;;;;;;;0.60;0.60;;;;;;;;5017560;28;8922;-77
2021/05/10 12:17:50;;;;;;;;;0.00;0.00;;;;;;;;5022048;28;9700;-79
2021/05/10 12:20:18;;;;;;;;;0.00;0.00;;;;;;;;5020439;28;9622;-80
2021/05/10 12:22:46;;;;;;;;;0.00;0.00;;;;;;;;5022084;28;8901;-80
2021/05/10 12:25:19;;;;;;;;;3.00;2.00;;;;;;;;5020124;28;8863;-80
2021/05/10 12:27:57;;;;;;;;;0.00;0.00;;;;;;;;5020683;28;8923;-78
2021/05/10 12:30:28;;;;;;;;;1.40;0.00;;;;;;;;5022521;28;8804;-78
2021/05/10 12:32:57;;;;;;;;;0.00;0.00;;;;;;;;5019602;28;8880;-79
2021/05/10 12:35:26;;;;;;;;;0.00;0.00;;;;;;;;5020566;28;8879;-78
2021/05/10 12:37:55;;;;;;;;;1.40;0.00;;;;;;;;5021962;28;8977;-77
2021/05/10 12:40:24;;;;;;;;;1.60;0.00;;;;;;;;5020738;28;9014;-78
2021/05/10 12:43:13;;;;;;;;;1.00;1.00;;;;;;;;5021622;28;8859;-78
2021/05/10 12:45:42;;;;;;;;;0.00;0.00;;;;;;;;5017453;28;8911;-80
2021/05/10 12:48:14;;;;;;;;;1.00;0.00;;;;;;;;5009386;28;8930;-78
2021/05/10 12:50:42;;;;;;;;;0.20;0.20;;;;;;;;5020938;28;8922;-79
2021/05/10 12:53:09;;;;;;;;;2.80;0.60;;;;;;;;5021288;28;8949;-78
2021/05/10 12:55:38;;;;;;;;;0.00;0.00;;;;;;;;5022560;28;8887;-79
2021/05/10 12:58:23;;;;;;;;;2.00;0.80;;;;;;;;5020478;28;8864;-79
2021/05/10 13:00:51;;;;;;;;;0.00;0.00;;;;;;;;5018042;28;8931;-80
2021/05/10 13:03:29;;;;;;;;;0.00;0.00;;;;;;;;5023929;28;8890;-78
2021/05/10 13:05:56;;;;;;;;;0.00;0.00;;;;;;;;5025451;28;9479;-79
2021/05/10 13:08:42;;;;;;;;;0.00;0.00;;;;;;;;5025179;28;8899;-77
2021/05/10 13:11:11;;;;;;;;;0.60;0.60;;;;;;;;5025199;28;9018;-77
2021/05/10 13:13:55;;;;;;;;;0.60;0.00;;;;;;;;5024443;28;8864;-77
2021/05/10 13:33:46;;;;;;;;;0.00;0.00;;;;;;;;5022361;28;8883;-79
2021/05/10 13:36:25;;;;;;;;;0.20;0.00;;;;;;;;5026036;28;8868;-79
2021/05/10 13:38:53;;;;;;;;;1.00;0.00;;;;;;;;5024185;28;9658;-79
2021/05/10 13:41:22;;;;;;;;;0.20;0.20;;;;;;;;5025104;28;8970;-79
2021/05/10 13:43:57;;;;;;;;;2.00;0.00;;;;;;;;5025504;28;8958;-79
2021/05/10 13:46:26;;;;;;;;;0.80;0.00;;;;;;;;5023456;28;8882;-80
2021/05/10 13:48:54;;;;;;;;;0.00;0.00;;;;;;;;5019134;28;8961;-77
2021/05/10 13:51:21;;;;;;;;;0.00;0.00;;;;;;;;5023386;28;8867;-76
2021/05/10 13:53:48;;;;;;;;;2.40;0.00;;;;;;;;5025423;28;8906;-78
2021/05/10 13:56:14;;;;;;;;;0.80;0.00;;;;;;;;5025174;28;8860;-78
2021/05/10 13:58:43;;;;;;;;;0.00;0.00;;;;;;;;5023476;28;8968;-78
2021/05/10 14:01:10;;;;;;;;;0.00;0.00;;;;;;;;5023501;28;8898;-79
2021/05/10 14:03:39;;;;;;;;;1.20;0.00;;;;;;;;5023682;28;8871;-78
2021/05/10 14:06:06;;;;;;;;;0.00;0.00;;;;;;;;5022824;28;9903;-77
2021/05/10 14:08:34;;;;;;;;;0.80;0.80;;;;;;;;5022567;28;8899;-81
2021/05/10 14:11:01;;;;;;;;;2.00;0.00;;;;;;;;5025242;28;8973;-79
2021/05/10 14:13:28;;;;;;;;;0.20;0.20;;;;;;;;5022618;28;8871;-79
2021/05/10 14:15:55;;;;;;;;;0.40;0.20;;;;;;;;5018583;28;9656;-79
2021/05/10 14:18:26;;;;;;;;;0.00;0.00;;;;;;;;5024302;28;8998;-82
2021/05/10 14:23:39;;;;;;;;;1.00;0.00;;;;;;;;5022861;28;8840;-80
2021/05/10 14:26:06;;;;;;;;;1.00;1.00;;;;;;;;5019377;28;9678;-79
2021/05/10 14:28:37;;;;;;;;;1.00;1.00;;;;;;;;5023371;28;8875;-78
2021/05/10 14:31:04;;;;;;;;;2.60;0.00;;;;;;;;5022551;28;8797;-80
2021/05/10 14:33:32;;;;;;;;;2.00;0.00;;;;;;;;5023202;28;8851;-79
2021/05/10 14:36:00;;;;;;;;;0.00;0.00;;;;;;;;5024551;28;8876;-79
2021/05/10 14:38:30;;;;;;;;;0.00;0.00;;;;;;;;5023684;28;8875;-78
2021/05/10 14:41:01;;;;;;;;;2.20;0.80;;;;;;;;5024659;28;9008;-80
2021/05/10 14:43:28;;;;;;;;;0.00;0.00;;;;;;;;5023357;28;9487;-77
2021/05/10 14:45:55;;;;;;;;;0.80;0.80;;;;;;;;5023967;28;8885;-78
2021/05/10 14:48:22;;;;;;;;;0.40;0.00;;;;;;;;5024206;28;8875;-78
2021/05/10 14:50:51;;;;;;;;;0.00;0.00;;;;;;;;5023025;28;8871;-79
2021/05/10 14:53:19;;;;;;;;;0.00;0.00;;;;;;;;5024654;28;8894;-78
2021/05/10 14:55:46;;;;;;;;;0.00;0.00;;;;;;;;5022922;28;8981;-80
2021/05/10 14:58:13;;;;;;;;;0.00;0.00;;;;;;;;5023411;28;8878;-79
2021/05/10 15:00:40;;;;;;;;;1.00;1.00;;;;;;;;5021646;28;8815;-79
2021/05/10 15:03:07;;;;;;;;;0.00;0.00;;;;;;;;5022558;28;8965;-78
2021/05/10 15:05:34;;;;;;;;;0.25;0.25;;;;;;;;5022292;28;8876;-80
2021/05/10 15:08:01;;;;;;;;;4.25;2.75;;;;;;;;5023873;28;8888;-80
2021/05/10 15:10:29;;;;;;;;;1.00;1.00;;;;;;;;5023080;28;8899;-80
2021/05/10 15:12:56;;;;;;;;;1.00;1.00;;;;;;;;5022026;28;8919;-79
2021/05/10 15:15:23;;;;;;;;;2.50;1.00;;;;;;;;5022189;28;8892;-79
2021/05/10 15:17:51;;;;;;;;;1.75;0.25;;;;;;;;5022458;28;8895;-80
2021/05/10 15:20:18;;;;;;;;;2.00;1.00;;;;;;;;5024272;28;8895;-80
2021/05/10 15:22:46;;;;;;;;;2.00;0.00;;;;;;;;5021951;28;8888;-80
2021/05/10 15:25:13;;;;;;;;;0.75;0.75;;;;;;;;5022061;28;8887;-79
2021/05/10 15:27:41;;;;;;;;;0.00;0.00;;;;;;;;5023908;28;10077;-80
2021/05/10 15:30:09;;;;;;;;;0.00;0.00;;;;;;;;5022536;28;8872;-77
2021/05/10 15:32:36;;;;;;;;;0.80;0.80;;;;;;;;5024195;28;8895;-79